sensor_id;sensor_type;location;lat;lon;timestamp;P1;durP1;ratioP1;P2;durP2;ratioP2
49296;SDS011;35163;48.878;18.040;2023-03-26T00:01:16;1.80;;;0.85;;
49296;SDS011;35163;48.878;18.040;2023-03-26T00:03:46;2.58;;;0.73;;
49296;SDS011;35163;48.878;18.040;2023-03-26T00:06:23;1.33;;;0.88;;
49296;SDS011;35163;48.878;18.040;2023-03-26T00:08:54;1.58;;;0.82;;
49296;SDS011;35163;48.878;18.040;2023-03-26T00:11:23;2.97;;;1.10;;
49296;SDS011;35163;48.878;18.040;2023-03-26T00:13:51;1.00;;;0.73;;
49296;SDS011;35163;48.878;18.040;2023-03-26T00:16:23;1.67;;;0.70;;
49296;SDS011;35163;48.878;18.040;2023-03-26T00:18:51;1.25;;;0.65;;
49296;SDS011;35163;48.878;18.040;2023-03-26T00:21:21;2.05;;;0.88;;
49296;SDS011;35163;48.878;18.040;2023-03-26T00:23:58;2.17;;;0.95;;
49296;SDS011;35163;48.878;18.040;2023-03-26T00:26:36;1.80;;;0.75;;
49296;SDS011;35163;48.878;18.040;2023-03-26T00:29:04;1.60;;;0.93;;
49296;SDS011;35163;48.878;18.040;2023-03-26T00:31:32;1.25;;;0.80;;
49296;SDS011;35163;48.878;18.040;2023-03-26T00:34:03;2.85;;;0.90;;
49296;SDS011;35163;48.878;18.040;2023-03-26T00:36:31;2.55;;;1.10;;
49296;SDS011;35163;48.878;18.040;2023-03-26T00:39:01;1.27;;;0.63;;
49296;SDS011;35163;48.878;18.040;2023-03-26T00:41:30;2.35;;;0.85;;
49296;SDS011;35163;48.878;18.040;2023-03-26T00:43:58;2.13;;;0.70;;
49296;SDS011;35163;48.878;18.040;2023-03-26T00:46:26;1.83;;;0.80;;
49296;SDS011;35163;48.878;18.040;2023-03-26T00:48:55;2.63;;;0.90;;
49296;SDS011;35163;48.878;18.040;2023-03-26T00:51:25;2.15;;;0.70;;
49296;SDS011;35163;48.878;18.040;2023-03-26T00:53:53;1.98;;;0.70;;
49296;SDS011;35163;48.878;18.040;2023-03-26T00:56:23;3.50;;;0.88;;
49296;SDS011;35163;48.878;18.040;2023-03-26T00:58:50;2.75;;;0.82;;
49296;SDS011;35163;48.878;18.040;2023-03-26T01:01:24;4.40;;;0.82;;
49296;SDS011;35163;48.878;18.040;2023-03-26T01:03:53;2.70;;;0.93;;
49296;SDS011;35163;48.878;18.040;2023-03-26T01:06:34;3.13;;;0.98;;
49296;SDS011;35163;48.878;18.040;2023-03-26T01:09:08;2.20;;;0.90;;
49296;SDS011;35163;48.878;18.040;2023-03-26T01:11:44;1.20;;;0.75;;
49296;SDS011;35163;48.878;18.040;2023-03-26T01:14:17;1.35;;;0.90;;
49296;SDS011;35163;48.878;18.040;2023-03-26T01:16:50;1.27;;;0.82;;
49296;SDS011;35163;48.878;18.040;2023-03-26T01:22:20;1.70;;;0.93;;
49296;SDS011;35163;48.878;18.040;2023-03-26T01:24:50;3.60;;;1.00;;
49296;SDS011;35163;48.878;18.040;2023-03-26T01:27:37;6.60;;;1.17;;
49296;SDS011;35163;48.878;18.040;2023-03-26T01:33:22;2.20;;;1.10;;
49296;SDS011;35163;48.878;18.040;2023-03-26T01:35:59;1.58;;;0.98;;
49296;SDS011;35163;48.878;18.040;2023-03-26T01:41:56;3.15;;;1.15;;
49296;SDS011;35163;48.878;18.040;2023-03-26T01:47:24;2.55;;;1.10;;
49296;SDS011;35163;48.878;18.040;2023-03-26T01:49:52;2.40;;;1.00;;
49296;SDS011;35163;48.878;18.040;2023-03-26T01:52:20;2.45;;;1.02;;
49296;SDS011;35163;48.878;18.040;2023-03-26T01:54:51;1.85;;;1.00;;
49296;SDS011;35163;48.878;18.040;2023-03-26T02:00:19;2.22;;;1.00;;
49296;SDS011;35163;48.878;18.040;2023-03-26T02:03:03;3.00;;;1.30;;
49296;SDS011;35163;48.878;18.040;2023-03-26T02:05:53;3.90;;;1.20;;
49296;SDS011;35163;48.878;18.040;2023-03-26T02:08:23;1.90;;;1.10;;
49296;SDS011;35163;48.878;18.040;2023-03-26T02:11:01;2.15;;;1.20;;
49296;SDS011;35163;48.878;18.040;2023-03-26T02:13:40;4.75;;;1.35;;
49296;SDS011;35163;48.878;18.040;2023-03-26T02:16:11;2.95;;;1.13;;
49296;SDS011;35163;48.878;18.040;2023-03-26T02:18:42;2.67;;;1.10;;
49296;SDS011;35163;48.878;18.040;2023-03-26T02:21:17;3.72;;;1.20;;
49296;SDS011;35163;48.878;18.040;2023-03-26T02:23:49;3.15;;;1.17;;
49296;SDS011;35163;48.878;18.040;2023-03-26T02:26:23;4.65;;;1.63;;
49296;SDS011;35163;48.878;18.040;2023-03-26T02:28:52;1.60;;;0.98;;
49296;SDS011;35163;48.878;18.040;2023-03-26T02:31:19;3.10;;;1.00;;
49296;SDS011;35163;48.878;18.040;2023-03-26T02:33:47;2.15;;;1.20;;
49296;SDS011;35163;48.878;18.040;2023-03-26T02:36:17;2.47;;;1.17;;
49296;SDS011;35163;48.878;18.040;2023-03-26T02:38:49;2.33;;;1.17;;
49296;SDS011;35163;48.878;18.040;2023-03-26T02:41:17;2.30;;;1.02;;
49296;SDS011;35163;48.878;18.040;2023-03-26T02:43:43;4.18;;;1.15;;
49296;SDS011;35163;48.878;18.040;2023-03-26T02:46:10;2.33;;;1.30;;
49296;SDS011;35163;48.878;18.040;2023-03-26T02:48:37;3.22;;;1.30;;
49296;SDS011;35163;48.878;18.040;2023-03-26T02:51:03;4.55;;;1.08;;
49296;SDS011;35163;48.878;18.040;2023-03-26T02:53:32;4.93;;;1.20;;
49296;SDS011;35163;48.878;18.040;2023-03-26T02:55:59;2.58;;;1.30;;
49296;SDS011;35163;48.878;18.040;2023-03-26T02:58:26;2.42;;;0.93;;
49296;SDS011;35163;48.878;18.040;2023-03-26T03:00:55;1.60;;;0.80;;
49296;SDS011;35163;48.878;18.040;2023-03-26T03:03:25;2.92;;;1.20;;
49296;SDS011;35163;48.878;18.040;2023-03-26T03:05:53;1.35;;;0.90;;
49296;SDS011;35163;48.878;18.040;2023-03-26T03:08:21;3.50;;;1.40;;
49296;SDS011;35163;48.878;18.040;2023-03-26T03:13:23;1.60;;;0.90;;
49296;SDS011;35163;48.878;18.040;2023-03-26T03:15:50;2.40;;;1.13;;
49296;SDS011;35163;48.878;18.040;2023-03-26T03:18:17;1.95;;;1.10;;
49296;SDS011;35163;48.878;18.040;2023-03-26T03:20:44;5.47;;;1.10;;
49296;SDS011;35163;48.878;18.040;2023-03-26T03:23:13;1.58;;;0.93;;
49296;SDS011;35163;48.878;18.040;2023-03-26T03:25:39;5.97;;;1.20;;
49296;SDS011;35163;48.878;18.040;2023-03-26T03:28:06;2.88;;;1.20;;
49296;SDS011;35163;48.878;18.040;2023-03-26T03:30:33;3.55;;;1.10;;
49296;SDS011;35163;48.878;18.040;2023-03-26T03:33:01;3.38;;;1.13;;
49296;SDS011;35163;48.878;18.040;2023-03-26T03:35:28;2.13;;;1.13;;
49296;SDS011;35163;48.878;18.040;2023-03-26T03:37:55;3.50;;;1.30;;
49296;SDS011;35163;48.878;18.040;2023-03-26T03:40:23;8.75;;;1.88;;
49296;SDS011;35163;48.878;18.040;2023-03-26T03:42:50;4.68;;;1.30;;
49296;SDS011;35163;48.878;18.040;2023-03-26T03:45:16;4.78;;;1.38;;
49296;SDS011;35163;48.878;18.040;2023-03-26T03:47:43;2.70;;;1.30;;
49296;SDS011;35163;48.878;18.040;2023-03-26T03:50:10;4.32;;;1.70;;
49296;SDS011;35163;48.878;18.040;2023-03-26T03:52:37;2.50;;;1.25;;
49296;SDS011;35163;48.878;18.040;2023-03-26T03:55:03;2.20;;;1.10;;
49296;SDS011;35163;48.878;18.040;2023-03-26T03:57:30;4.18;;;1.30;;
49296;SDS011;35163;48.878;18.040;2023-03-26T04:00:00;3.20;;;1.40;;
49296;SDS011;35163;48.878;18.040;2023-03-26T04:02:31;1.83;;;1.33;;
49296;SDS011;35163;48.878;18.040;2023-03-26T04:05:00;4.75;;;1.30;;
49296;SDS011;35163;48.878;18.040;2023-03-26T04:07:28;5.68;;;1.33;;
49296;SDS011;35163;48.878;18.040;2023-03-26T04:09:58;2.35;;;1.20;;
49296;SDS011;35163;48.878;18.040;2023-03-26T04:12:26;2.53;;;1.08;;
49296;SDS011;35163;48.878;18.040;2023-03-26T04:14:54;2.28;;;1.27;;
49296;SDS011;35163;48.878;18.040;2023-03-26T04:17:21;2.40;;;1.40;;
49296;SDS011;35163;48.878;18.040;2023-03-26T04:19:49;5.22;;;1.42;;
49296;SDS011;35163;48.878;18.040;2023-03-26T04:22:18;2.40;;;1.27;;
49296;SDS011;35163;48.878;18.040;2023-03-26T04:24:45;3.33;;;1.40;;
49296;SDS011;35163;48.878;18.040;2023-03-26T04:27:15;4.70;;;1.38;;
49296;SDS011;35163;48.878;18.040;2023-03-26T04:29:45;3.63;;;1.50;;
49296;SDS011;35163;48.878;18.040;2023-03-26T04:32:17;3.17;;;1.40;;
49296;SDS011;35163;48.878;18.040;2023-03-26T04:34:51;3.72;;;1.58;;
49296;SDS011;35163;48.878;18.040;2023-03-26T04:37:23;5.90;;;1.73;;
49296;SDS011;35163;48.878;18.040;2023-03-26T04:39:52;3.88;;;1.85;;
49296;SDS011;35163;48.878;18.040;2023-03-26T04:42:20;1.73;;;1.13;;
49296;SDS011;35163;48.878;18.040;2023-03-26T04:44:47;3.55;;;1.50;;
49296;SDS011;35163;48.878;18.040;2023-03-26T04:47:17;3.25;;;1.50;;
49296;SDS011;35163;48.878;18.040;2023-03-26T04:49:44;4.60;;;1.60;;
49296;SDS011;35163;48.878;18.040;2023-03-26T04:52:12;2.22;;;1.35;;
49296;SDS011;35163;48.878;18.040;2023-03-26T04:54:41;4.75;;;1.67;;
49296;SDS011;35163;48.878;18.040;2023-03-26T04:57:14;2.20;;;1.30;;
49296;SDS011;35163;48.878;18.040;2023-03-26T04:59:46;3.10;;;1.45;;
49296;SDS011;35163;48.878;18.040;2023-03-26T05:02:13;2.38;;;1.30;;
49296;SDS011;35163;48.878;18.040;2023-03-26T05:04:40;2.38;;;1.48;;
49296;SDS011;35163;48.878;18.040;2023-03-26T05:07:09;4.90;;;1.70;;
49296;SDS011;35163;48.878;18.040;2023-03-26T05:09:38;4.20;;;1.80;;
49296;SDS011;35163;48.878;18.040;2023-03-26T05:12:04;6.38;;;1.70;;
49296;SDS011;35163;48.878;18.040;2023-03-26T05:14:31;1.75;;;1.23;;
49296;SDS011;35163;48.878;18.040;2023-03-26T05:17:00;3.88;;;1.60;;
49296;SDS011;35163;48.878;18.040;2023-03-26T05:19:31;3.50;;;1.60;;
49296;SDS011;35163;48.878;18.040;2023-03-26T05:21:58;2.50;;;1.60;;
49296;SDS011;35163;48.878;18.040;2023-03-26T05:24:24;2.40;;;1.48;;
49296;SDS011;35163;48.878;18.040;2023-03-26T05:26:52;2.33;;;1.52;;
49296;SDS011;35163;48.878;18.040;2023-03-26T05:29:21;4.57;;;1.75;;
49296;SDS011;35163;48.878;18.040;2023-03-26T05:31:49;4.30;;;1.80;;
49296;SDS011;35163;48.878;18.040;2023-03-26T05:34:16;3.90;;;1.67;;
49296;SDS011;35163;48.878;18.040;2023-03-26T05:36:43;2.47;;;1.50;;
49296;SDS011;35163;48.878;18.040;2023-03-26T05:39:09;5.20;;;1.73;;
49296;SDS011;35163;48.878;18.040;2023-03-26T05:41:38;2.83;;;1.73;;
49296;SDS011;35163;48.878;18.040;2023-03-26T05:44:04;5.80;;;1.70;;
49296;SDS011;35163;48.878;18.040;2023-03-26T05:46:31;3.10;;;1.58;;
49296;SDS011;35163;48.878;18.040;2023-03-26T05:48:58;4.22;;;1.60;;
49296;SDS011;35163;48.878;18.040;2023-03-26T05:51:24;2.55;;;1.40;;
49296;SDS011;35163;48.878;18.040;2023-03-26T05:53:51;3.20;;;1.50;;
49296;SDS011;35163;48.878;18.040;2023-03-26T05:56:17;6.70;;;3.10;;
49296;SDS011;35163;48.878;18.040;2023-03-26T05:58:44;5.53;;;2.35;;
49296;SDS011;35163;48.878;18.040;2023-03-26T06:01:12;5.50;;;2.28;;
49296;SDS011;35163;48.878;18.040;2023-03-26T06:03:44;2.90;;;1.58;;
49296;SDS011;35163;48.878;18.040;2023-03-26T06:06:12;7.80;;;1.90;;
49296;SDS011;35163;48.878;18.040;2023-03-26T06:08:41;3.63;;;1.48;;
49296;SDS011;35163;48.878;18.040;2023-03-26T06:11:27;4.90;;;2.03;;
49296;SDS011;35163;48.878;18.040;2023-03-26T06:13:54;6.22;;;1.77;;
49296;SDS011;35163;48.878;18.040;2023-03-26T06:16:21;7.28;;;2.00;;
49296;SDS011;35163;48.878;18.040;2023-03-26T06:18:53;5.55;;;2.42;;
49296;SDS011;35163;48.878;18.040;2023-03-26T06:21:22;4.82;;;2.08;;
49296;SDS011;35163;48.878;18.040;2023-03-26T06:23:50;3.72;;;1.70;;
49296;SDS011;35163;48.878;18.040;2023-03-26T06:26:19;2.25;;;1.55;;
49296;SDS011;35163;48.878;18.040;2023-03-26T06:28:48;4.20;;;1.80;;
49296;SDS011;35163;48.878;18.040;2023-03-26T06:31:15;4.10;;;1.60;;
49296;SDS011;35163;48.878;18.040;2023-03-26T06:33:42;2.92;;;1.70;;
49296;SDS011;35163;48.878;18.040;2023-03-26T06:36:09;6.15;;;1.60;;
49296;SDS011;35163;48.878;18.040;2023-03-26T06:38:36;2.70;;;1.40;;
49296;SDS011;35163;48.878;18.040;2023-03-26T06:41:03;6.70;;;1.85;;
49296;SDS011;35163;48.878;18.040;2023-03-26T06:43:31;4.70;;;1.70;;
49296;SDS011;35163;48.878;18.040;2023-03-26T06:46:02;5.78;;;2.00;;
49296;SDS011;35163;48.878;18.040;2023-03-26T06:48:29;4.60;;;1.90;;
49296;SDS011;35163;48.878;18.040;2023-03-26T06:50:56;3.97;;;1.83;;
49296;SDS011;35163;48.878;18.040;2023-03-26T06:53:23;10.07;;;2.15;;
49296;SDS011;35163;48.878;18.040;2023-03-26T06:55:51;3.63;;;1.80;;
49296;SDS011;35163;48.878;18.040;2023-03-26T06:58:19;7.72;;;2.20;;
49296;SDS011;35163;48.878;18.040;2023-03-26T07:00:46;2.88;;;1.60;;
49296;SDS011;35163;48.878;18.040;2023-03-26T07:03:12;4.00;;;1.58;;
49296;SDS011;35163;48.878;18.040;2023-03-26T07:05:39;2.92;;;1.70;;
49296;SDS011;35163;48.878;18.040;2023-03-26T07:08:06;2.45;;;1.60;;
49296;SDS011;35163;48.878;18.040;2023-03-26T07:10:33;4.38;;;2.08;;
49296;SDS011;35163;48.878;18.040;2023-03-26T07:12:59;3.97;;;1.80;;
49296;SDS011;35163;48.878;18.040;2023-03-26T07:15:26;4.25;;;1.70;;
49296;SDS011;35163;48.878;18.040;2023-03-26T07:17:53;5.38;;;2.22;;
49296;SDS011;35163;48.878;18.040;2023-03-26T07:20:20;4.50;;;1.65;;
49296;SDS011;35163;48.878;18.040;2023-03-26T07:22:47;5.75;;;2.20;;
49296;SDS011;35163;48.878;18.040;2023-03-26T07:25:15;10.30;;;4.45;;
49296;SDS011;35163;48.878;18.040;2023-03-26T07:27:45;13.88;;;5.70;;
49296;SDS011;35163;48.878;18.040;2023-03-26T07:30:33;8.40;;;2.83;;
49296;SDS011;35163;48.878;18.040;2023-03-26T07:33:09;3.38;;;1.83;;
49296;SDS011;35163;48.878;18.040;2023-03-26T07:35:51;5.45;;;2.00;;
49296;SDS011;35163;48.878;18.040;2023-03-26T07:38:26;6.03;;;1.98;;
49296;SDS011;35163;48.878;18.040;2023-03-26T07:41:19;6.93;;;1.88;;
49296;SDS011;35163;48.878;18.040;2023-03-26T07:46:49;3.78;;;1.67;;
49296;SDS011;35163;48.878;18.040;2023-03-26T07:49:18;5.63;;;1.92;;
49296;SDS011;35163;48.878;18.040;2023-03-26T07:51:47;3.58;;;1.63;;
49296;SDS011;35163;48.878;18.040;2023-03-26T07:54:14;6.15;;;1.80;;
49296;SDS011;35163;48.878;18.040;2023-03-26T07:59:32;4.50;;;1.85;;
49296;SDS011;35163;48.878;18.040;2023-03-26T08:02:25;3.10;;;1.65;;
49296;SDS011;35163;48.878;18.040;2023-03-26T08:08:01;4.40;;;1.92;;
49296;SDS011;35163;48.878;18.040;2023-03-26T08:19:47;5.00;;;1.60;;
49296;SDS011;35163;48.878;18.040;2023-03-26T08:27:36;4.93;;;1.42;;
49296;SDS011;35163;48.878;18.040;2023-03-26T08:30:11;4.07;;;1.40;;
49296;SDS011;35163;48.878;18.040;2023-03-26T08:32:43;2.95;;;1.20;;
49296;SDS011;35163;48.878;18.040;2023-03-26T08:35:22;3.05;;;1.20;;
49296;SDS011;35163;48.878;18.040;2023-03-26T08:37:49;3.97;;;1.58;;
49296;SDS011;35163;48.878;18.040;2023-03-26T08:40:19;4.28;;;1.20;;
49296;SDS011;35163;48.878;18.040;2023-03-26T08:43:22;4.40;;;1.23;;
49296;SDS011;35163;48.878;18.040;2023-03-26T08:49:00;3.42;;;1.17;;
49296;SDS011;35163;48.878;18.040;2023-03-26T08:54:30;3.63;;;1.48;;
49296;SDS011;35163;48.878;18.040;2023-03-26T08:57:13;3.33;;;1.38;;
49296;SDS011;35163;48.878;18.040;2023-03-26T09:10:45;8.52;;;1.90;;
49296;SDS011;35163;48.878;18.040;2023-03-26T09:18:53;2.83;;;1.48;;
49296;SDS011;35163;48.878;18.040;2023-03-26T09:27:23;4.65;;;1.42;;
49296;SDS011;35163;48.878;18.040;2023-03-26T09:30:23;3.22;;;1.30;;
49296;SDS011;35163;48.878;18.040;2023-03-26T09:41:14;1.23;;;0.90;;
49296;SDS011;35163;48.878;18.040;2023-03-26T09:49:36;2.35;;;1.20;;
49296;SDS011;35163;48.878;18.040;2023-03-26T09:55:27;4.20;;;0.98;;
49296;SDS011;35163;48.878;18.040;2023-03-26T10:14:43;2.40;;;0.80;;
49296;SDS011;35163;48.878;18.040;2023-03-26T10:25:45;3.25;;;1.20;;
49296;SDS011;35163;48.878;18.040;2023-03-26T10:28:36;3.30;;;1.10;;
49296;SDS011;35163;48.878;18.040;2023-03-26T10:34:08;2.15;;;0.90;;
49296;SDS011;35163;48.878;18.040;2023-03-26T10:37:13;6.28;;;1.52;;
49296;SDS011;35163;48.878;18.040;2023-03-26T10:48:59;4.28;;;1.10;;
49296;SDS011;35163;48.878;18.040;2023-03-26T10:52:03;4.10;;;1.20;;
49296;SDS011;35163;48.878;18.040;2023-03-26T10:57:02;4.22;;;1.10;;
49296;SDS011;35163;48.878;18.040;2023-03-26T10:59:36;8.88;;;1.92;;
49296;SDS011;35163;48.878;18.040;2023-03-26T11:07:51;4.28;;;1.35;;
49296;SDS011;35163;48.878;18.040;2023-03-26T11:10:38;3.47;;;0.93;;
49296;SDS011;35163;48.878;18.040;2023-03-26T11:13:19;2.83;;;0.95;;
49296;SDS011;35163;48.878;18.040;2023-03-26T11:16:02;4.22;;;1.13;;
49296;SDS011;35163;48.878;18.040;2023-03-26T11:18:44;6.20;;;1.17;;
49296;SDS011;35163;48.878;18.040;2023-03-26T11:27:02;4.25;;;1.38;;
49296;SDS011;35163;48.878;18.040;2023-03-26T11:29:45;5.10;;;0.90;;
49296;SDS011;35163;48.878;18.040;2023-03-26T11:32:25;3.08;;;1.05;;
49296;SDS011;35163;48.878;18.040;2023-03-26T11:35:00;3.33;;;1.20;;
49296;SDS011;35163;48.878;18.040;2023-03-26T11:37:36;5.13;;;1.10;;
49296;SDS011;35163;48.878;18.040;2023-03-26T11:40:13;4.20;;;1.13;;
49296;SDS011;35163;48.878;18.040;2023-03-26T11:42:49;3.78;;;1.10;;
49296;SDS011;35163;48.878;18.040;2023-03-26T11:45:22;5.45;;;1.13;;
49296;SDS011;35163;48.878;18.040;2023-03-26T11:47:56;3.47;;;1.23;;
49296;SDS011;35163;48.878;18.040;2023-03-26T11:50:33;4.45;;;1.02;;
49296;SDS011;35163;48.878;18.040;2023-03-26T11:53:13;4.95;;;1.00;;
49296;SDS011;35163;48.878;18.040;2023-03-26T11:55:45;3.88;;;1.13;;
49296;SDS011;35163;48.878;18.040;2023-03-26T11:58:24;2.20;;;1.00;;
49296;SDS011;35163;48.878;18.040;2023-03-26T12:00:57;5.25;;;1.05;;
49296;SDS011;35163;48.878;18.040;2023-03-26T12:03:24;3.42;;;1.02;;
49296;SDS011;35163;48.878;18.040;2023-03-26T12:05:57;4.43;;;0.90;;
49296;SDS011;35163;48.878;18.040;2023-03-26T12:08:37;3.35;;;1.13;;
49296;SDS011;35163;48.878;18.040;2023-03-26T12:11:06;5.78;;;1.20;;
49296;SDS011;35163;48.878;18.040;2023-03-26T12:13:38;11.75;;;4.03;;
49296;SDS011;35163;48.878;18.040;2023-03-26T12:16:16;4.65;;;2.13;;
49296;SDS011;35163;48.878;18.040;2023-03-26T12:18:44;12.07;;;1.50;;
49296;SDS011;35163;48.878;18.040;2023-03-26T12:21:22;2.25;;;0.73;;
49296;SDS011;35163;48.878;18.040;2023-03-26T12:26:19;2.90;;;0.93;;
49296;SDS011;35163;48.878;18.040;2023-03-26T12:29:11;2.20;;;0.98;;
49296;SDS011;35163;48.878;18.040;2023-03-26T12:31:44;2.90;;;0.80;;
49296;SDS011;35163;48.878;18.040;2023-03-26T12:34:31;3.40;;;0.90;;
49296;SDS011;35163;48.878;18.040;2023-03-26T12:37:00;2.50;;;1.00;;
49296;SDS011;35163;48.878;18.040;2023-03-26T12:42:29;3.05;;;0.90;;
49296;SDS011;35163;48.878;18.040;2023-03-26T12:45:21;7.28;;;1.15;;
49296;SDS011;35163;48.878;18.040;2023-03-26T12:47:49;2.45;;;0.80;;
49296;SDS011;35163;48.878;18.040;2023-03-26T12:50:31;2.58;;;0.80;;
49296;SDS011;35163;48.878;18.040;2023-03-26T13:04:31;1.83;;;0.75;;
49296;SDS011;35163;48.878;18.040;2023-03-26T13:07:34;4.05;;;1.33;;
49296;SDS011;35163;48.878;18.040;2023-03-26T13:13:17;4.65;;;1.02;;
49296;SDS011;35163;48.878;18.040;2023-03-26T13:16:38;7.80;;;1.58;;
49296;SDS011;35163;48.878;18.040;2023-03-26T13:22:26;2.90;;;0.90;;
49296;SDS011;35163;48.878;18.040;2023-03-26T13:28:15;6.80;;;1.33;;
49296;SDS011;35163;48.878;18.040;2023-03-26T13:39:19;6.03;;;1.30;;
49296;SDS011;35163;48.878;18.040;2023-03-26T13:42:19;6.10;;;1.20;;
49296;SDS011;35163;48.878;18.040;2023-03-26T13:45:02;5.90;;;1.30;;
49296;SDS011;35163;48.878;18.040;2023-03-26T13:47:48;5.90;;;1.40;;
49296;SDS011;35163;48.878;18.040;2023-03-26T13:50:27;2.90;;;0.95;;
49296;SDS011;35163;48.878;18.040;2023-03-26T13:53:06;5.55;;;1.58;;
49296;SDS011;35163;48.878;18.040;2023-03-26T13:55:45;5.93;;;1.42;;
49296;SDS011;35163;48.878;18.040;2023-03-26T13:58:19;4.05;;;1.20;;
49296;SDS011;35163;48.878;18.040;2023-03-26T14:06:32;6.70;;;1.10;;
49296;SDS011;35163;48.878;18.040;2023-03-26T14:17:24;5.80;;;1.52;;
49296;SDS011;35163;48.878;18.040;2023-03-26T14:20:12;2.83;;;1.08;;
49296;SDS011;35163;48.878;18.040;2023-03-26T14:31:34;3.50;;;1.00;;
49296;SDS011;35163;48.878;18.040;2023-03-26T14:40:19;4.55;;;1.20;;
49296;SDS011;35163;48.878;18.040;2023-03-26T14:43:04;7.05;;;1.50;;
49296;SDS011;35163;48.878;18.040;2023-03-26T14:54:21;3.85;;;1.40;;
49296;SDS011;35163;48.878;18.040;2023-03-26T15:03:01;5.05;;;1.00;;
49296;SDS011;35163;48.878;18.040;2023-03-26T15:11:16;4.05;;;1.10;;
49296;SDS011;35163;48.878;18.040;2023-03-26T15:22:28;1.38;;;0.82;;
49296;SDS011;35163;48.878;18.040;2023-03-26T15:25:20;2.92;;;1.17;;
49296;SDS011;35163;48.878;18.040;2023-03-26T15:33:52;3.38;;;1.30;;
49296;SDS011;35163;48.878;18.040;2023-03-26T16:02:42;1.95;;;0.90;;
49296;SDS011;35163;48.878;18.040;2023-03-26T16:10:56;3.45;;;1.05;;
49296;SDS011;35163;48.878;18.040;2023-03-26T16:15:53;2.08;;;1.00;;
49296;SDS011;35163;48.878;18.040;2023-03-26T16:24:19;5.30;;;1.13;;
49296;SDS011;35163;48.878;18.040;2023-03-26T16:26:59;3.75;;;1.85;;
49296;SDS011;35163;48.878;18.040;2023-03-26T16:29:27;3.90;;;1.30;;
49296;SDS011;35163;48.878;18.040;2023-03-26T16:35:01;4.25;;;2.00;;
49296;SDS011;35163;48.878;18.040;2023-03-26T16:38:03;7.97;;;2.13;;
49296;SDS011;35163;48.878;18.040;2023-03-26T16:40:31;5.82;;;2.28;;
49296;SDS011;35163;48.878;18.040;2023-03-26T16:48:52;6.80;;;1.40;;
49296;SDS011;35163;48.878;18.040;2023-03-26T16:51:26;3.53;;;1.50;;
49296;SDS011;35163;48.878;18.040;2023-03-26T16:54:50;4.35;;;1.50;;
49296;SDS011;35163;48.878;18.040;2023-03-26T17:03:14;3.70;;;1.60;;
49296;SDS011;35163;48.878;18.040;2023-03-26T17:17:11;2.78;;;1.45;;
49296;SDS011;35163;48.878;18.040;2023-03-26T17:19:53;2.25;;;1.50;;
49296;SDS011;35163;48.878;18.040;2023-03-26T17:22:40;3.40;;;1.55;;
49296;SDS011;35163;48.878;18.040;2023-03-26T17:40:47;2.05;;;1.30;;
49296;SDS011;35163;48.878;18.040;2023-03-26T17:43:44;1.98;;;1.20;;
49296;SDS011;35163;48.878;18.040;2023-03-26T17:46:24;3.80;;;1.58;;
49296;SDS011;35163;48.878;18.040;2023-03-26T17:51:38;2.65;;;1.30;;
49296;SDS011;35163;48.878;18.040;2023-03-26T17:54:15;5.55;;;1.55;;
49296;SDS011;35163;48.878;18.040;2023-03-26T17:59:17;4.57;;;1.75;;
49296;SDS011;35163;48.878;18.040;2023-03-26T18:01:52;4.43;;;2.08;;
49296;SDS011;35163;48.878;18.040;2023-03-26T18:04:27;3.72;;;1.60;;
49296;SDS011;35163;48.878;18.040;2023-03-26T18:07:03;4.15;;;1.90;;
49296;SDS011;35163;48.878;18.040;2023-03-26T18:15:40;5.72;;;2.63;;
49296;SDS011;35163;48.878;18.040;2023-03-26T18:18:30;7.60;;;2.90;;
49296;SDS011;35163;48.878;18.040;2023-03-26T18:20:59;6.70;;;3.25;;
49296;SDS011;35163;48.878;18.040;2023-03-26T18:23:36;7.30;;;3.42;;
49296;SDS011;35163;48.878;18.040;2023-03-26T18:31:17;11.48;;;4.03;;
49296;SDS011;35163;48.878;18.040;2023-03-26T18:33:48;11.48;;;4.18;;
49296;SDS011;35163;48.878;18.040;2023-03-26T18:36:16;7.30;;;3.78;;
49296;SDS011;35163;48.878;18.040;2023-03-26T18:38:54;6.82;;;2.70;;
49296;SDS011;35163;48.878;18.040;2023-03-26T18:41:26;7.57;;;2.97;;
49296;SDS011;35163;48.878;18.040;2023-03-26T18:44:00;6.00;;;1.98;;
49296;SDS011;35163;48.878;18.040;2023-03-26T18:46:28;4.95;;;1.90;;
49296;SDS011;35163;48.878;18.040;2023-03-26T18:48:55;4.47;;;2.00;;
49296;SDS011;35163;48.878;18.040;2023-03-26T18:51:24;6.90;;;2.35;;
49296;SDS011;35163;48.878;18.040;2023-03-26T18:53:55;6.05;;;2.55;;
49296;SDS011;35163;48.878;18.040;2023-03-26T18:56:31;6.18;;;3.00;;
49296;SDS011;35163;48.878;18.040;2023-03-26T18:59:05;6.43;;;2.75;;
49296;SDS011;35163;48.878;18.040;2023-03-26T19:01:46;13.05;;;3.95;;
49296;SDS011;35163;48.878;18.040;2023-03-26T19:04:14;9.45;;;4.22;;
49296;SDS011;35163;48.878;18.040;2023-03-26T19:06:41;9.88;;;4.65;;
49296;SDS011;35163;48.878;18.040;2023-03-26T19:09:09;11.00;;;4.47;;
49296;SDS011;35163;48.878;18.040;2023-03-26T19:11:56;10.43;;;4.95;;
49296;SDS011;35163;48.878;18.040;2023-03-26T19:14:29;9.68;;;4.80;;
49296;SDS011;35163;48.878;18.040;2023-03-26T19:17:00;9.00;;;4.53;;
49296;SDS011;35163;48.878;18.040;2023-03-26T19:19:34;12.60;;;5.55;;
49296;SDS011;35163;48.878;18.040;2023-03-26T19:22:05;9.73;;;4.70;;
49296;SDS011;35163;48.878;18.040;2023-03-26T19:24:36;8.95;;;4.38;;
49296;SDS011;35163;48.878;18.040;2023-03-26T19:27:05;9.10;;;4.40;;
49296;SDS011;35163;48.878;18.040;2023-03-26T19:29:32;12.38;;;4.55;;
49296;SDS011;35163;48.878;18.040;2023-03-26T19:32:02;9.25;;;4.63;;
49296;SDS011;35163;48.878;18.040;2023-03-26T19:34:46;11.93;;;5.25;;
49296;SDS011;35163;48.878;18.040;2023-03-26T19:37:15;16.63;;;5.72;;
49296;SDS011;35163;48.878;18.040;2023-03-26T19:39:54;13.20;;;5.75;;
49296;SDS011;35163;48.878;18.040;2023-03-26T19:42:39;12.60;;;5.38;;
49296;SDS011;35163;48.878;18.040;2023-03-26T19:45:16;11.52;;;5.28;;
49296;SDS011;35163;48.878;18.040;2023-03-26T19:47:44;15.80;;;6.18;;
49296;SDS011;35163;48.878;18.040;2023-03-26T19:50:23;9.73;;;5.45;;
49296;SDS011;35163;48.878;18.040;2023-03-26T19:55:54;10.48;;;4.72;;
49296;SDS011;35163;48.878;18.040;2023-03-26T19:58:30;11.27;;;4.25;;
49296;SDS011;35163;48.878;18.040;2023-03-26T20:01:03;9.52;;;3.75;;
49296;SDS011;35163;48.878;18.040;2023-03-26T20:03:35;8.30;;;4.20;;
49296;SDS011;35163;48.878;18.040;2023-03-26T20:06:12;7.45;;;3.65;;
49296;SDS011;35163;48.878;18.040;2023-03-26T20:08:41;8.60;;;3.83;;
49296;SDS011;35163;48.878;18.040;2023-03-26T20:11:12;6.90;;;3.10;;
49296;SDS011;35163;48.878;18.040;2023-03-26T20:13:41;10.40;;;3.50;;
49296;SDS011;35163;48.878;18.040;2023-03-26T20:16:22;9.40;;;4.53;;
49296;SDS011;35163;48.878;18.040;2023-03-26T20:18:52;11.57;;;4.43;;
49296;SDS011;35163;48.878;18.040;2023-03-26T20:21:25;11.00;;;4.60;;
49296;SDS011;35163;48.878;18.040;2023-03-26T20:23:52;8.63;;;4.35;;
49296;SDS011;35163;48.878;18.040;2023-03-26T20:26:20;10.82;;;4.00;;
49296;SDS011;35163;48.878;18.040;2023-03-26T20:28:48;7.55;;;3.08;;
49296;SDS011;35163;48.878;18.040;2023-03-26T20:31:20;6.25;;;2.95;;
49296;SDS011;35163;48.878;18.040;2023-03-26T20:33:48;13.70;;;3.35;;
49296;SDS011;35163;48.878;18.040;2023-03-26T20:36:17;10.20;;;4.25;;
49296;SDS011;35163;48.878;18.040;2023-03-26T20:39:00;8.07;;;3.85;;
49296;SDS011;35163;48.878;18.040;2023-03-26T20:41:31;7.25;;;3.60;;
49296;SDS011;35163;48.878;18.040;2023-03-26T20:43:59;6.32;;;3.05;;
49296;SDS011;35163;48.878;18.040;2023-03-26T20:46:26;9.13;;;2.95;;